createdAt,value
2023-03-11T00:01:39.871Z,100296.00
2023-03-11T00:04:15.240Z,100324.59
2023-03-11T00:07:18.716Z,100350.59
2023-03-11T00:10:02.294Z,100354.06
2023-03-11T00:12:34.335Z,100361.00
2023-03-11T00:22:37.002Z,100351.47
2023-03-11T00:25:12.748Z,100354.09
2023-03-11T00:27:45.243Z,100363.63
2023-03-11T00:30:20.673Z,100387.00
2023-03-11T00:32:55.051Z,100373.16
2023-03-11T00:35:35.439Z,100400.03
2023-03-11T00:38:19.644Z,100362.75
2023-03-11T00:40:51.785Z,100406.97
2023-03-11T00:47:13.993Z,100426.06
2023-03-11T00:59:46.666Z,100439.94
2023-03-11T01:03:00.070Z,100437.31
2023-03-11T01:05:53.362Z,100422.59
2023-03-11T01:11:32.609Z,100431.25
2023-03-11T01:14:10.737Z,100446.88
2023-03-11T01:17:31.141Z,100432.97
2023-03-11T03:39:02.545Z,100594.84
2023-03-11T03:41:57.873Z,100606.47
2023-03-11T03:44:58.382Z,100619.44
2023-03-11T03:50:40.306Z,100615.81
2023-03-11T03:53:16.145Z,100629.47
2023-03-11T03:55:47.835Z,100617.72
2023-03-11T03:58:20.900Z,100620.03
2023-03-11T04:00:58.091Z,100590.63
2023-03-11T04:03:40.654Z,100646.22
2023-03-11T04:06:12.910Z,100616.72
2023-03-11T04:08:44.463Z,100628.38
2023-03-11T04:11:24.671Z,100608.22
2023-03-11T04:14:00.535Z,100653.47
2023-03-11T04:16:29.110Z,100661.72
2023-03-11T04:18:57.955Z,100642.88
2023-03-11T04:21:28.441Z,100621.81
2023-03-11T04:24:00.287Z,100626.19
2023-03-11T04:26:31.094Z,100663.91
2023-03-11T04:28:59.516Z,100627.75
2023-03-11T04:31:27.789Z,100681.75
2023-03-11T04:33:56.681Z,100653.88
2023-03-11T04:36:25.024Z,100660.94
2023-03-11T04:38:53.331Z,100671.38
2023-03-11T04:41:23.667Z,100662.25
2023-03-11T04:43:56.984Z,100663.09
2023-03-11T04:46:25.263Z,100657.66
2023-03-11T04:48:53.687Z,100634.94
2023-03-11T04:51:22.126Z,100642.59
2023-03-11T04:53:51.475Z,100659.53
2023-03-11T04:56:20.520Z,100659.59
2023-03-11T04:58:49.069Z,100691.72
2023-03-11T05:01:19.013Z,100664.94
2023-03-11T05:03:47.626Z,100662.66
2023-03-11T05:06:24.515Z,100665.56
2023-03-11T05:08:55.523Z,100690.59
2023-03-11T05:11:23.705Z,100701.19
2023-03-11T05:13:52.340Z,100684.34
2023-03-11T05:16:21.958Z,100692.06
2023-03-11T05:18:57.022Z,100689.00
2023-03-11T05:21:26.991Z,100685.63
2023-03-11T05:23:55.100Z,100708.28
2023-03-11T05:26:23.547Z,100667.66
2023-03-11T05:28:51.911Z,100684.63
2023-03-11T05:31:24.492Z,100713.13
2023-03-11T05:33:53.668Z,100708.38
2023-03-11T05:36:21.961Z,100686.75
2023-03-11T05:38:53.643Z,100715.22
2023-03-11T05:41:22.021Z,100690.09
2023-03-11T05:43:51.414Z,100716.69
2023-03-11T05:46:21.278Z,100715.56
2023-03-11T05:48:56.423Z,100720.13
2023-03-11T05:51:32.416Z,100700.16
2023-03-11T05:54:11.876Z,100728.06
2023-03-11T05:56:40.874Z,100728.88
2023-03-11T05:59:09.550Z,100709.41
2023-03-11T06:01:39.660Z,100733.72
2023-03-11T06:04:09.612Z,100711.34
2023-03-11T06:06:37.793Z,100725.97
2023-03-11T06:09:05.862Z,100722.47
2023-03-11T06:11:35.405Z,100733.75
2023-03-11T06:14:03.479Z,100720.28
2023-03-11T06:16:31.758Z,100733.81
2023-03-11T06:19:02.846Z,100733.16
2023-03-11T06:21:31.197Z,100762.25
2023-03-11T06:23:59.597Z,100744.25
2023-03-11T06:26:28.168Z,100745.19
2023-03-11T06:28:56.805Z,100745.19
2023-03-11T06:31:27.651Z,100754.50
2023-03-11T06:34:05.674Z,100784.31
2023-03-11T06:36:35.410Z,100753.88
2023-03-11T06:39:04.416Z,100781.41
2023-03-11T06:41:36.881Z,100772.72
2023-03-11T06:44:05.590Z,100796.59
2023-03-11T06:46:35.430Z,100793.94
2023-03-11T06:49:08.376Z,100804.66
2023-03-11T06:51:37.879Z,100782.22
2023-03-11T06:54:08.808Z,100779.56
2023-03-11T06:56:38.231Z,100790.16
2023-03-11T06:59:09.838Z,100818.59
2023-03-11T07:01:39.854Z,100823.38
2023-03-11T07:04:12.999Z,100809.94
2023-03-11T07:06:48.905Z,100804.03
2023-03-11T07:09:20.197Z,100826.97
2023-03-11T07:11:50.272Z,100837.63
2023-03-11T07:14:21.157Z,100834.88
2023-03-11T07:16:51.227Z,100823.66
2023-03-11T07:19:43.670Z,100844.63
2023-03-11T07:22:27.386Z,100851.56
2023-03-11T07:25:10.445Z,100846.34
2023-03-11T07:27:51.046Z,100853.22
2023-03-11T07:30:58.180Z,100872.28
2023-03-11T07:33:34.298Z,100882.75
2023-03-11T07:36:15.223Z,100875.84
2023-03-11T08:32:06.202Z,101246.19
2023-03-11T08:35:07.779Z,101254.56
2023-03-11T08:45:31.162Z,101218.84
2023-03-11T09:15:31.628Z,101339.66
2023-03-11T09:18:33.300Z,101353.53
2023-03-11T09:21:14.347Z,101367.41
2023-03-11T09:26:34.540Z,101372.69
2023-03-11T09:29:10.509Z,101442.91
2023-03-11T09:32:07.050Z,101416.41
2023-03-11T09:34:41.123Z,101443.69
2023-03-11T09:40:03.696Z,101437.59
2023-03-11T09:42:43.561Z,101444.50
2023-03-11T09:45:21.228Z,101460.25
2023-03-11T09:48:07.523Z,101395.81
2023-03-11T09:50:53.968Z,101379.50
2023-03-11T09:53:36.949Z,101411.44
2023-03-11T09:56:08.923Z,101411.59
2023-03-11T09:58:50.871Z,101437.16
2023-03-11T10:01:37.111Z,101405.59
2023-03-11T10:08:08.658Z,101378.78
2023-03-11T10:11:26.989Z,101382.69
2023-03-11T10:14:40.844Z,101375.41
2023-03-11T10:17:23.700Z,101386.91
2023-03-11T10:20:02.612Z,101371.34
2023-03-11T10:22:38.854Z,101407.09
2023-03-11T10:25:13.073Z,101365.25
2023-03-11T10:27:47.727Z,101353.50
2023-03-11T10:30:29.725Z,101350.28
2023-03-11T10:33:02.775Z,101306.03
2023-03-11T10:35:43.476Z,101317.53
2023-03-11T10:38:18.196Z,101309.63
2023-03-11T10:40:52.634Z,101244.09
2023-03-11T10:43:34.878Z,101252.31
2023-03-11T10:46:42.869Z,101279.13
2023-03-11T10:49:39.916Z,101292.59
2023-03-11T10:55:41.454Z,101260.06
2023-03-11T10:58:15.218Z,101255.91
2023-03-11T11:03:30.960Z,101265.00
2023-03-11T11:06:07.905Z,101267.03
2023-03-11T11:08:37.097Z,101280.84
2023-03-11T11:11:22.875Z,101257.47
2023-03-11T11:14:06.350Z,101261.25
2023-03-11T11:16:46.728Z,101252.78
2023-03-11T11:19:22.403Z,101268.41
2023-03-11T11:21:52.792Z,101237.13
2023-03-11T11:24:26.005Z,101202.59
2023-03-11T11:27:08.474Z,101062.81
2023-03-11T11:29:36.780Z,100859.00
2023-03-11T11:32:20.101Z,100717.63
2023-03-11T11:35:02.472Z,100487.09
2023-03-11T11:37:40.103Z,100122.66
2023-03-11T11:40:27.473Z,99871.28
2023-03-11T11:43:04.699Z,99787.28
2023-03-11T11:45:50.317Z,99840.94
2023-03-11T11:48:49.762Z,99798.00
2023-03-11T11:51:50.602Z,99832.59
2023-03-11T11:54:27.247Z,99825.13
2023-03-11T11:56:56.511Z,99726.00
2023-03-11T11:59:25.597Z,99786.03
2023-03-11T12:02:05.485Z,99802.50
2023-03-11T12:04:56.158Z,99916.50
2023-03-11T12:07:36.632Z,100008.63
2023-03-11T12:10:26.042Z,100140.91
2023-03-11T12:13:16.561Z,100168.78
2023-03-11T12:15:51.019Z,100142.97
2023-03-11T12:18:25.582Z,100175.19
2023-03-11T12:20:56.199Z,100128.75
2023-03-11T12:23:42.700Z,100154.69
2023-03-11T12:26:20.083Z,100077.09
2023-03-11T12:28:55.568Z,100089.03
2023-03-11T12:31:28.114Z,100111.75
2023-03-11T12:34:02.258Z,100088.69
2023-03-11T12:36:34.044Z,100074.28
2023-03-11T12:39:06.558Z,100138.88
2023-03-11T12:41:39.867Z,100039.63
2023-03-11T12:44:24.421Z,100122.75
2023-03-11T12:47:20.248Z,100123.59
2023-03-11T12:49:50.045Z,100110.22
2023-03-11T12:52:29.822Z,100127.75
2023-03-11T12:55:32.775Z,100141.84
2023-03-11T12:58:25.116Z,100112.31
2023-03-11T13:01:23.182Z,100170.09
2023-03-11T13:04:17.181Z,100180.91
2023-03-11T13:07:16.776Z,100305.81
2023-03-11T13:09:44.738Z,100271.81
2023-03-11T13:12:41.621Z,100150.06
2023-03-11T13:15:44.303Z,100191.88
2023-03-11T13:18:24.435Z,100088.75
2023-03-11T13:20:57.791Z,100073.00
2023-03-11T13:23:38.215Z,100079.34
2023-03-11T13:26:31.408Z,100153.72
2023-03-11T13:29:37.161Z,100099.47
2023-03-11T13:32:26.705Z,100109.63
2023-03-11T13:35:07.689Z,100121.56
2023-03-11T13:37:45.734Z,100104.41
2023-03-11T13:40:27.019Z,100099.59
2023-03-11T13:43:01.679Z,100164.50
2023-03-11T13:45:35.885Z,100110.84
2023-03-11T13:48:08.542Z,100041.63
2023-03-11T13:50:39.577Z,100016.19
2023-03-11T13:53:16.306Z,100095.38
2023-03-11T13:55:49.183Z,100039.19
2023-03-11T13:58:20.860Z,100002.97
2023-03-11T14:00:53.252Z,99975.00
2023-03-11T14:03:25.348Z,99999.91
2023-03-11T14:05:59.105Z,100049.69
2023-03-11T14:08:29.125Z,100027.06
2023-03-11T14:10:58.817Z,100086.38
2023-03-11T14:13:30.515Z,100051.41
2023-03-11T14:16:05.771Z,100072.31
2023-03-11T14:18:36.963Z,100029.75
2023-03-11T14:21:06.871Z,100007.28
2023-03-11T14:23:37.616Z,100028.03
2023-03-11T14:26:08.968Z,100080.25
2023-03-11T14:28:41.646Z,100072.94
2023-03-11T14:31:24.536Z,100076.94
2023-03-11T14:33:57.674Z,100025.91
2023-03-11T14:36:26.935Z,100020.31
2023-03-11T14:38:54.904Z,100002.81
2023-03-11T14:41:24.252Z,100015.16
2023-03-11T14:43:59.268Z,99960.16
2023-03-11T14:46:32.958Z,99939.88
2023-03-11T14:49:04.395Z,99968.63
2023-03-11T14:51:34.761Z,100014.97
2023-03-11T14:54:09.490Z,99938.44
2023-03-11T14:56:40.906Z,99946.31
2023-03-11T14:59:13.184Z,99950.19
2023-03-11T15:01:44.826Z,99879.31
2023-03-11T15:04:16.110Z,99895.81
2023-03-11T15:06:46.165Z,99892.50
2023-03-11T15:09:17.312Z,99908.13
2023-03-11T15:11:49.110Z,99854.25
2023-03-11T15:14:25.796Z,99831.25
2023-03-11T15:16:57.731Z,100081.09
2023-03-11T15:19:34.412Z,100190.59
2023-03-11T15:22:08.639Z,100176.06
2023-03-11T15:24:36.588Z,100178.78
2023-03-11T15:27:20.422Z,100160.75
2023-03-11T15:29:52.430Z,100146.88
2023-03-11T15:32:40.037Z,100134.16
2023-03-11T15:35:17.382Z,100133.63
2023-03-11T15:37:47.558Z,100115.75
2023-03-11T15:40:23.434Z,100112.28
2023-03-11T15:43:20.625Z,100040.25
2023-03-11T15:45:49.263Z,100048.94
2023-03-11T15:48:18.727Z,100080.28
2023-03-11T15:50:54.439Z,100132.97
2023-03-11T15:53:24.698Z,100121.25
2023-03-11T15:56:05.998Z,100172.88
2023-03-11T15:58:35.793Z,100179.31
2023-03-11T16:01:07.015Z,100208.50
2023-03-11T16:04:16.122Z,100222.00
2023-03-11T16:07:02.958Z,100271.94
2023-03-11T16:09:36.298Z,100308.59
2023-03-11T16:12:15.237Z,100365.41
2023-03-11T16:14:43.288Z,100405.59
2023-03-11T16:17:14.546Z,100461.47
2023-03-11T16:19:49.821Z,100513.38
2023-03-11T16:22:20.032Z,100564.56
2023-03-11T16:24:50.685Z,100669.47
2023-03-11T16:27:20.273Z,100749.19
2023-03-11T16:29:50.056Z,100852.09
2023-03-11T16:32:18.936Z,100869.75
2023-03-11T16:34:48.871Z,100908.31
2023-03-11T16:37:21.114Z,100973.63
2023-03-11T16:39:50.802Z,100965.91
2023-03-11T16:42:24.110Z,100992.97
2023-03-11T16:44:52.251Z,101028.75
2023-03-11T16:47:20.753Z,101021.78
2023-03-11T16:49:53.661Z,101035.75
2023-03-11T16:52:23.140Z,101040.22
2023-03-11T16:54:57.090Z,101055.13
2023-03-11T16:57:31.278Z,101099.59
2023-03-11T17:00:00.980Z,101091.78
2023-03-11T17:02:29.357Z,101073.50
2023-03-11T17:04:59.245Z,101039.50
2023-03-11T17:07:27.405Z,101023.81
2023-03-11T17:09:56.700Z,101028.16
2023-03-11T17:12:25.951Z,101011.59
2023-03-11T17:14:55.271Z,100988.06
2023-03-11T17:17:24.139Z,100994.16
2023-03-11T17:19:52.410Z,100972.44
2023-03-11T17:22:24.698Z,100968.09
2023-03-11T17:24:53.869Z,100982.00
2023-03-11T17:27:24.038Z,100949.84
2023-03-11T17:29:53.151Z,100950.72
2023-03-11T17:32:23.670Z,100943.75
2023-03-11T17:34:52.681Z,100964.63
2023-03-11T17:37:27.057Z,100951.63
2023-03-11T17:39:55.224Z,100930.75
2023-03-11T17:42:23.718Z,100969.03
2023-03-11T17:44:52.712Z,100941.19
2023-03-11T17:47:26.024Z,100931.63
2023-03-11T17:49:57.094Z,100926.41
2023-03-11T17:52:26.765Z,100932.50
2023-03-11T17:54:56.714Z,100905.53
2023-03-11T17:57:25.514Z,100915.97
2023-03-11T17:59:54.691Z,100921.16
2023-03-11T18:02:24.441Z,100917.69
2023-03-11T18:04:53.983Z,100896.69
2023-03-11T18:07:28.742Z,100890.66
2023-03-11T18:10:00.647Z,100922.88
2023-03-11T18:12:29.711Z,100928.97
2023-03-11T18:14:58.406Z,100903.78
2023-03-11T18:17:29.184Z,100915.97
2023-03-11T18:19:58.645Z,100906.31
2023-03-11T18:22:26.922Z,100922.00
2023-03-11T18:24:55.366Z,100892.34
2023-03-11T18:27:26.029Z,100888.78
2023-03-11T18:29:55.019Z,100900.13
2023-03-11T18:32:24.979Z,100903.66
2023-03-11T18:34:59.888Z,100865.34
2023-03-11T18:37:36.299Z,100892.38
2023-03-11T18:40:12.741Z,100859.19
2023-03-11T18:42:43.102Z,100868.81
2023-03-11T18:45:12.434Z,100861.84
2023-03-11T18:47:40.759Z,100861.88
2023-03-11T18:50:13.146Z,100884.44
2023-03-11T18:52:41.388Z,100877.53
2023-03-11T18:55:10.409Z,100857.50
2023-03-11T18:57:40.693Z,100874.91
2023-03-11T19:00:13.566Z,100874.03
2023-03-11T19:02:42.090Z,100875.75
2023-03-11T19:05:12.466Z,100856.53
2023-03-11T19:07:40.832Z,100846.16
2023-03-11T19:10:28.732Z,100867.91
2023-03-11T19:12:57.544Z,100903.56
2023-03-11T19:15:27.601Z,100899.19
2023-03-11T19:18:06.293Z,100890.47
2023-03-11T19:20:35.946Z,100886.97
2023-03-11T19:23:11.822Z,100874.81
2023-03-11T19:25:41.366Z,100894.78
2023-03-11T19:28:12.589Z,100896.41
2023-03-11T19:30:42.558Z,100869.38
2023-03-11T19:33:10.893Z,100883.22
2023-03-11T19:35:39.025Z,100888.47
2023-03-11T19:38:08.790Z,100886.75
2023-03-11T19:40:36.996Z,100839.59
2023-03-11T19:43:05.977Z,100853.47
2023-03-11T19:45:34.238Z,100864.16
2023-03-11T19:48:05.582Z,100892.81
2023-03-11T19:50:33.847Z,100880.34
2023-03-11T19:53:04.107Z,100883.88
2023-03-11T19:55:33.039Z,100906.50
2023-03-11T19:58:03.937Z,100897.69
2023-03-11T20:00:32.475Z,100868.88
2023-03-11T20:03:12.574Z,100910.00
2023-03-11T20:05:44.180Z,100870.84
2023-03-11T20:08:14.814Z,100902.00
2023-03-11T20:11:20.587Z,100906.41
2023-03-11T20:14:13.236Z,100905.53
2023-03-11T20:16:53.908Z,100890.94
2023-03-11T20:19:55.565Z,100890.03
2023-03-11T20:22:27.080Z,100887.06
2023-03-11T20:24:55.650Z,100860.81
2023-03-11T20:27:24.261Z,100848.69
2023-03-11T20:29:53.161Z,100886.00
2023-03-11T20:32:24.308Z,100881.78
2023-03-11T20:34:55.502Z,100857.41
2023-03-11T20:37:27.948Z,100874.63
2023-03-11T20:39:59.831Z,100869.56
2023-03-11T20:42:28.608Z,100866.00
2023-03-11T20:44:57.424Z,100816.41
2023-03-11T20:47:27.946Z,100853.06
2023-03-11T20:49:58.778Z,100861.88
2023-03-11T20:52:35.780Z,100839.97
2023-03-11T20:55:14.800Z,100855.56
2023-03-11T20:57:43.687Z,100879.00
2023-03-11T21:00:18.879Z,100867.59
2023-03-11T21:02:47.622Z,100822.63
2023-03-11T21:05:21.548Z,100822.56
2023-03-11T21:07:56.053Z,100832.69
2023-03-11T21:10:26.115Z,100831.78
2023-03-11T21:12:54.484Z,100800.25
2023-03-11T21:15:23.884Z,100833.41
2023-03-11T21:17:53.718Z,100795.13
2023-03-11T21:20:22.628Z,100814.28
2023-03-11T21:22:54.326Z,100836.84
2023-03-11T21:25:23.617Z,100803.72
2023-03-11T21:27:51.719Z,100816.16
2023-03-11T21:30:20.358Z,100830.44
2023-03-11T21:32:52.561Z,100795.13
2023-03-11T21:35:26.895Z,100794.84
2023-03-11T21:37:57.098Z,100750.97
2023-03-11T21:40:26.952Z,100794.19
2023-03-11T21:42:55.999Z,100764.03
2023-03-11T21:45:24.398Z,100793.31
2023-03-11T21:47:53.997Z,100802.22
2023-03-11T21:50:22.534Z,100759.44
2023-03-11T21:52:52.508Z,100805.56
2023-03-11T21:55:24.019Z,100795.00
2023-03-11T21:57:53.270Z,100767.91
2023-03-11T22:00:22.797Z,100808.63
2023-03-11T22:02:52.985Z,100767.66
2023-03-11T22:05:21.817Z,100778.69
2023-03-11T22:07:52.196Z,100810.34
2023-03-11T22:10:27.381Z,100798.59
2023-03-11T22:12:55.473Z,100792.31
2023-03-11T22:15:24.074Z,100813.66
2023-03-11T22:17:53.095Z,100809.28
2023-03-11T22:20:22.218Z,100795.38
2023-03-11T22:22:51.170Z,100808.72
2023-03-11T22:25:22.426Z,100805.13
2023-03-11T22:27:53.316Z,100809.84
2023-03-11T22:30:21.733Z,100788.84
2023-03-11T22:32:51.649Z,100819.16
2023-03-11T22:35:20.682Z,100818.53
2023-03-11T22:37:51.630Z,100821.81
2023-03-11T22:40:21.835Z,100825.94
2023-03-11T22:42:51.763Z,100815.69
2023-03-11T22:45:23.088Z,100836.41
2023-03-11T22:47:54.514Z,100797.41
2023-03-11T22:50:25.596Z,100805.25
2023-03-11T22:52:54.402Z,100832.44
2023-03-11T22:55:22.732Z,100845.41
2023-03-11T22:57:57.985Z,100853.25
2023-03-11T23:00:27.653Z,100832.66
2023-03-11T23:02:56.978Z,100845.59
2023-03-11T23:05:25.462Z,100851.78
2023-03-11T23:07:54.919Z,100835.13
2023-03-11T23:10:23.243Z,100844.88
2023-03-11T23:12:55.619Z,100839.66
2023-03-11T23:15:23.891Z,100858.06
2023-03-11T23:17:52.134Z,100851.88
2023-03-11T23:20:23.848Z,100849.28
2023-03-11T23:22:52.936Z,100857.97
2023-03-11T23:25:24.196Z,100824.56
2023-03-11T23:27:54.066Z,100852.41
2023-03-11T23:30:23.963Z,100872.44
2023-03-11T23:32:52.099Z,100869.81
2023-03-11T23:35:22.858Z,100860.06
2023-03-11T23:37:51.534Z,100875.66
2023-03-11T23:40:31.835Z,100942.38
2023-03-11T23:43:03.167Z,101078.59
2023-03-11T23:45:31.430Z,101087.19
2023-03-11T23:48:00.677Z,101052.34
2023-03-11T23:50:28.763Z,101088.41
2023-03-11T23:55:49.099Z,101092.69
2023-03-11T23:58:20.819Z,101085.69
